Time;durP1;ratioP1;P1;durP2;ratioP2;P2;SDS_P1;SDS_P2;PMS_P1;PMS_P2;Temp;Humidity;BMP_temperature;BMP_pressure;BME280_temperature;BME280_humidity;BME280_pressure;Samples;Min_cycle;Max_cycle;Signal;HPM_P1;HPM_P2
2023/10/26 00:00:28;;;;;;;20.20;18.13;;;;;;;9.74;100.00;99580.59;5001118;28;20060;-46
2023/10/26 00:02:53;;;;;;;24.10;19.17;;;;;;;9.72;100.00;99586.03;4996284;28;20034;-47
2023/10/26 00:05:19;;;;;;;20.80;18.50;;;;;;;9.72;100.00;99590.53;5012893;28;20026;-48
2023/10/26 00:07:44;;;;;;;22.17;18.35;;;;;;;9.73;100.00;99602.81;5001979;28;20513;-47
2023/10/26 00:10:09;;;;;;;22.30;18.90;;;;;;;9.71;100.00;99600.28;4998051;28;20029;-46
2023/10/26 00:12:35;;;;;;;21.77;18.50;;;;;;;9.71;100.00;99599.44;4996632;28;20022;-46
2023/10/26 00:15:00;;;;;;;20.75;17.88;;;;;;;9.71;100.00;99608.25;5001044;28;20075;-47
2023/10/26 00:17:26;;;;;;;20.08;17.98;;;;;;;9.71;100.00;99605.59;5001177;28;20038;-47
2023/10/26 00:19:54;;;;;;;20.15;18.10;;;;;;;9.71;100.00;99608.25;5004551;28;20097;-46
2023/10/26 00:22:20;;;;;;;19.98;17.85;;;;;;;9.68;100.00;99607.72;4999818;28;20040;-46
2023/10/26 00:24:45;;;;;;;21.27;18.38;;;;;;;9.68;100.00;99613.00;5000093;28;20069;-46
2023/10/26 00:27:11;;;;;;;20.98;18.65;;;;;;;9.66;100.00;99609.63;4994531;28;20455;-47
2023/10/26 00:29:36;;;;;;;20.23;18.13;;;;;;;9.63;100.00;99619.56;4997807;28;20093;-47
2023/10/26 00:32:04;;;;;;;20.70;18.50;;;;;;;9.65;100.00;99622.06;5001146;28;20033;-46
2023/10/26 00:34:29;;;;;;;20.65;18.30;;;;;;;9.65;100.00;99626.53;4999190;28;20026;-47
2023/10/26 00:36:54;;;;;;;19.80;17.83;;;;;;;9.65;100.00;99623.88;4997668;28;20037;-47
2023/10/26 00:39:20;;;;;;;20.38;18.00;;;;;;;9.64;100.00;99620.38;5000180;28;20042;-46
2023/10/26 00:41:45;;;;;;;19.17;17.17;;;;;;;9.66;100.00;99625.53;4997949;28;20121;-47
2023/10/26 00:44:10;;;;;;;20.33;17.88;;;;;;;9.63;100.00;99626.69;4998033;28;20026;-46
2023/10/26 00:46:36;;;;;;;18.88;16.98;;;;;;;9.62;100.00;99631.13;4996062;28;20049;-46
2023/10/26 00:49:01;;;;;;;19.77;17.50;;;;;;;9.62;100.00;99641.72;4998726;28;20957;-47
2023/10/26 00:51:27;;;;;;;17.13;15.32;;;;;;;9.61;100.00;99636.59;4998177;28;20030;-46
2023/10/26 00:53:52;;;;;;;18.45;16.55;;;;;;;9.58;100.00;99645.66;5001047;28;20049;-46
2023/10/26 00:56:20;;;;;;;17.58;15.73;;;;;;;9.59;100.00;99644.69;4994386;28;20038;-46
2023/10/26 00:58:47;;;;;;;20.20;16.40;;;;;;;9.59;100.00;99647.34;5000947;28;20419;-46
2023/10/26 01:01:12;;;;;;;17.45;15.55;;;;;;;9.59;100.00;99651.78;4995533;28;20388;-46
2023/10/26 01:03:39;;;;;;;17.63;15.82;;;;;;;9.59;100.00;99650.00;4998263;28;20022;-47
2023/10/26 01:06:04;;;;;;;17.48;15.75;;;;;;;9.58;100.00;99648.31;5000344;28;20430;-46
2023/10/26 01:08:30;;;;;;;18.33;16.17;;;;;;;9.59;100.00;99647.34;4998248;28;20018;-47
2023/10/26 01:10:57;;;;;;;18.70;16.40;;;;;;;9.58;100.00;99645.66;4998953;28;20030;-46
2023/10/26 01:13:23;;;;;;;18.17;16.23;;;;;;;9.57;100.00;99651.91;4997306;28;20367;-46
2023/10/26 01:15:48;;;;;;;18.48;16.55;;;;;;;9.57;100.00;99651.09;4997350;28;20469;-46
2023/10/26 01:18:15;;;;;;;19.75;16.60;;;;;;;9.54;100.00;99652.22;4998717;28;20075;-47
2023/10/26 01:20:42;;;;;;;18.02;16.15;;;;;;;9.57;100.00;99651.09;5017218;28;20054;-46
2023/10/26 01:23:07;;;;;;;18.13;16.30;;;;;;;9.55;100.00;99640.63;4998312;28;20030;-46
2023/10/26 01:25:32;;;;;;;20.00;16.90;;;;;;;9.56;100.00;99642.31;4997457;28;20034;-48
2023/10/26 01:27:58;;;;;;;19.02;16.17;;;;;;;9.54;100.00;99636.31;4995826;28;20037;-46
2023/10/26 01:30:23;;;;;;;18.42;16.40;;;;;;;9.54;100.00;99641.63;4995113;28;20561;-46
2023/10/26 01:32:48;;;;;;;19.02;16.60;;;;;;;9.53;100.00;99652.38;4996130;28;20030;-47
2023/10/26 01:35:13;;;;;;;18.27;16.38;;;;;;;9.51;100.00;99647.22;4998826;28;20022;-47
2023/10/26 01:37:39;;;;;;;18.17;16.23;;;;;;;9.50;100.00;99650.81;4997428;28;20024;-47
2023/10/26 01:40:09;;;;;;;18.50;16.50;;;;;;;9.47;100.00;99644.97;4998118;28;20358;-46
2023/10/26 01:42:34;;;;;;;18.65;16.58;;;;;;;9.43;100.00;99649.72;5001629;28;20060;-46
2023/10/26 01:45:00;;;;;;;17.63;15.82;;;;;;;9.40;100.00;99650.81;4996252;28;20488;-46
2023/10/26 01:47:25;;;;;;;17.88;15.85;;;;;;;9.37;100.00;99653.75;5000680;28;20022;-46
2023/10/26 01:49:50;;;;;;;17.98;16.08;;;;;;;9.36;100.00;99656.53;4995687;28;20022;-46
2023/10/26 01:52:16;;;;;;;17.17;15.05;;;;;;;9.33;100.00;99655.00;4994700;28;20136;-46
2023/10/26 01:54:41;;;;;;;18.40;16.50;;;;;;;9.32;100.00;99655.97;4996652;28;20053;-46
2023/10/26 01:57:06;;;;;;;18.27;16.38;;;;;;;9.32;100.00;99653.31;4998029;28;20022;-46
2023/10/26 01:59:32;;;;;;;17.90;16.10;;;;;;;9.32;100.00;99663.91;4996982;28;20026;-46
2023/10/26 02:01:57;;;;;;;18.63;16.15;;;;;;;9.30;100.00;99663.22;4998950;28;20109;-46
2023/10/26 02:04:22;;;;;;;17.52;15.38;;;;;;;9.32;100.00;99660.44;5005873;28;20026;-46
2023/10/26 02:06:47;;;;;;;20.45;16.80;;;;;;;9.29;100.00;99655.41;4997424;28;20507;-46
2023/10/26 02:09:13;;;;;;;18.38;16.50;;;;;;;9.26;100.00;99654.72;4996883;28;20033;-48
2023/10/26 02:11:38;;;;;;;17.65;15.80;;;;;;;9.24;100.00;99643.44;4997113;28;20023;-47
2023/10/26 02:14:03;;;;;;;18.55;16.35;;;;;;;9.20;100.00;99639.38;4999262;28;20087;-46
2023/10/26 02:16:28;;;;;;;18.42;15.68;;;;;;;9.17;100.00;99636.16;5004511;28;20025;-46
2023/10/26 02:18:54;;;;;;;17.38;15.63;;;;;;;9.15;100.00;99638.94;5001487;28;20361;-46
2023/10/26 02:21:19;;;;;;;17.48;15.68;;;;;;;9.12;100.00;99641.03;4998649;28;20034;-46
2023/10/26 02:23:44;;;;;;;16.35;14.52;;;;;;;9.10;100.00;99645.66;4997687;28;20029;-48
2023/10/26 02:26:10;;;;;;;18.65;16.50;;;;;;;9.04;100.00;99642.59;4997405;28;20472;-46
2023/10/26 02:28:35;;;;;;;17.33;15.50;;;;;;;9.03;100.00;99645.38;4993133;28;20026;-47
2023/10/26 02:31:01;;;;;;;16.33;14.63;;;;;;;8.95;100.00;99635.44;4997743;28;20030;-46
2023/10/26 02:33:26;;;;;;;16.95;14.80;;;;;;;8.96;100.00;99637.13;4999171;28;20042;-46
2023/10/26 02:35:52;;;;;;;17.67;15.77;;;;;;;8.91;100.00;99631.41;4996271;28;20105;-46
2023/10/26 02:38:17;;;;;;;16.67;15.02;;;;;;;8.87;100.00;99627.34;4996138;28;20063;-45
2023/10/26 02:40:42;;;;;;;17.98;15.95;;;;;;;8.86;100.00;99631.81;4999307;28;20030;-47
2023/10/26 02:43:08;;;;;;;16.83;15.13;;;;;;;8.85;100.00;99630.13;4995164;28;20030;-46
2023/10/26 02:45:33;;;;;;;18.85;16.02;;;;;;;8.82;100.00;99637.50;4999998;28;20055;-46
2023/10/26 02:47:59;;;;;;;18.50;15.20;;;;;;;8.77;100.00;99632.63;4996077;28;20032;-47
2023/10/26 02:50:24;;;;;;;17.20;15.40;;;;;;;8.74;100.00;99643.47;4999504;28;20035;-47
2023/10/26 02:52:50;;;;;;;17.75;13.98;;;;;;;8.71;100.00;99638.47;4998493;28;20023;-46
2023/10/26 02:55:15;;;;;;;17.38;15.38;;;;;;;8.68;100.00;99641.38;4997563;28;20038;-46
2023/10/26 02:57:41;;;;;;;17.98;15.15;;;;;;;8.67;100.00;99637.88;5008384;28;20449;-47
2023/10/26 03:00:07;;;;;;;17.92;15.77;;;;;;;8.63;100.00;99633.84;5005734;28;20033;-47
2023/10/26 03:02:32;;;;;;;18.85;15.50;;;;;;;8.60;100.00;99628.81;4998025;28;20029;-47
2023/10/26 03:04:58;;;;;;;18.13;16.23;;;;;;;8.57;100.00;99626.44;4998817;28;20056;-46
2023/10/26 03:07:24;;;;;;;16.88;15.18;;;;;;;8.55;100.00;99628.38;4994172;28;20072;-46
2023/10/26 03:09:50;;;;;;;16.70;15.00;;;;;;;8.49;100.00;99629.78;5004625;28;20038;-46
2023/10/26 03:12:15;;;;;;;16.95;15.25;;;;;;;8.45;100.00;99633.63;4992173;28;20064;-47
2023/10/26 03:14:40;;;;;;;17.30;15.32;;;;;;;8.43;100.00;99642.69;4997638;28;20117;-46
2023/10/26 03:17:06;;;;;;;17.90;15.82;;;;;;;8.37;100.00;99635.25;4996509;28;20050;-46
2023/10/26 03:19:32;;;;;;;18.52;16.20;;;;;;;8.36;100.00;99644.16;4996574;28;20034;-46
2023/10/26 03:21:57;;;;;;;18.42;16.42;;;;;;;8.33;100.00;99642.63;4994308;28;20057;-48
2023/10/26 03:24:23;;;;;;;18.70;15.48;;;;;;;8.30;100.00;99640.22;4999295;28;20404;-46
2023/10/26 03:26:48;;;;;;;18.90;16.90;;;;;;;8.25;100.00;99643.28;4999278;28;20034;-46
2023/10/26 03:29:13;;;;;;;18.70;16.55;;;;;;;8.27;100.00;99643.13;5010277;28;20126;-46
2023/10/26 03:31:40;;;;;;;19.88;16.55;;;;;;;8.24;100.00;99643.41;4999072;28;20030;-46
2023/10/26 03:34:05;;;;;;;19.25;16.73;;;;;;;8.21;100.00;99633.94;5001994;28;20105;-46
2023/10/26 03:36:30;;;;;;;20.42;16.70;;;;;;;8.16;100.00;99641.44;4996407;28;20747;-46
2023/10/26 03:38:55;;;;;;;18.80;16.80;;;;;;;8.14;100.00;99631.00;5006229;28;20033;-46
2023/10/26 03:41:21;;;;;;;17.88;15.93;;;;;;;8.11;100.00;99625.97;4999514;28;20083;-46
2023/10/26 03:43:46;;;;;;;20.45;18.27;;;;;;;8.11;100.00;99625.97;5000299;28;20018;-46
2023/10/26 03:46:12;;;;;;;24.02;19.48;;;;;;;8.11;100.00;99630.38;5007342;28;20050;-46
2023/10/26 03:48:37;;;;;;;23.45;19.45;;;;;;;8.09;100.00;99630.53;5001349;28;20136;-46
2023/10/26 03:51:03;;;;;;;24.17;20.00;;;;;;;8.09;100.00;99627.03;4996217;28;20088;-46
2023/10/26 03:53:29;;;;;;;30.98;21.60;;;;;;;8.10;100.00;99607.56;5001309;28;20172;-47
2023/10/26 03:55:55;;;;;;;27.90;20.42;;;;;;;8.09;100.00;99605.88;4999884;28;20783;-46
2023/10/26 03:58:20;;;;;;;31.08;21.05;;;;;;;8.08;100.00;99599.78;4998121;28;20357;-46
2023/10/26 04:00:47;;;;;;;35.53;22.02;;;;;;;8.09;100.00;99601.47;4998362;28;20038;-46
2023/10/26 04:03:12;;;;;;;24.27;21.00;;;;;;;8.10;100.00;99599.63;4998779;28;20083;-46
2023/10/26 04:05:38;;;;;;;29.65;22.40;;;;;;;8.11;100.00;99601.28;4999428;28;20426;-46
2023/10/26 04:08:05;;;;;;;41.85;20.85;;;;;;;8.11;100.00;99598.66;5000492;28;20041;-46
2023/10/26 04:10:30;;;;;;;58.60;21.48;;;;;;;8.08;100.00;99599.78;4999607;28;20061;-46
2023/10/26 04:12:56;;;;;;;30.33;20.88;;;;;;;8.09;100.00;99598.81;5001793;28;20061;-46
2023/10/26 04:15:21;;;;;;;43.65;21.38;;;;;;;8.09;100.00;99593.53;4999063;28;20046;-46
2023/10/26 04:17:46;;;;;;;73.43;20.33;;;;;;;8.08;100.00;99591.00;5002260;28;20025;-46
2023/10/26 04:20:12;;;;;;;71.68;20.52;;;;;;;8.07;100.00;99590.16;5012860;28;20030;-47
2023/10/26 04:22:37;;;;;;;54.03;20.58;;;;;;;8.08;100.00;99593.66;5001880;28;20030;-49
2023/10/26 04:25:04;;;;;;;41.13;20.17;;;;;;;8.07;100.00;99591.97;4998421;28;20018;-46
2023/10/26 04:27:30;;;;;;;35.00;19.40;;;;;;;8.07;100.00;99600.72;4999786;28;20034;-47
2023/10/26 04:29:56;;;;;;;150.88;20.83;;;;;;;8.04;100.00;99606.28;4996230;28;20062;-46
2023/10/26 04:32:21;;;;;;;43.85;18.98;;;;;;;8.06;100.00;99600.84;5001478;28;20060;-46
2023/10/26 04:34:46;;;;;;;56.40;19.33;;;;;;;8.05;100.00;99615.06;4996773;28;20045;-46
2023/10/26 04:37:11;;;;;;;49.95;18.15;;;;;;;8.03;100.00;99601.16;4995506;28;20034;-48
2023/10/26 04:39:37;;;;;;;72.03;18.00;;;;;;;7.97;100.00;99605.13;5001677;28;20037;-46
2023/10/26 04:42:03;;;;;;;25.70;17.60;;;;;;;7.99;100.00;99610.28;5000184;28;20033;-46
2023/10/26 04:44:29;;;;;;;36.55;16.50;;;;;;;7.95;100.00;99605.25;5001329;28;20504;-47
2023/10/26 04:46:54;;;;;;;65.70;17.10;;;;;;;7.91;100.00;99611.78;4996030;28;20042;-46
2023/10/26 04:49:19;;;;;;;53.00;16.33;;;;;;;7.89;100.00;99611.09;5000759;28;20042;-48
2023/10/26 04:51:45;;;;;;;45.45;15.88;;;;;;;7.89;100.00;99607.59;5000051;28;20029;-47
2023/10/26 04:54:10;;;;;;;17.00;15.30;;;;;;;7.89;100.00;99600.53;4999621;28;20030;-46
2023/10/26 04:56:35;;;;;;;67.70;14.77;;;;;;;7.83;100.00;99602.81;4997621;28;20083;-46
2023/10/26 04:59:01;;;;;;;62.05;15.75;;;;;;;7.82;100.00;99602.00;4997382;28;20038;-47
2023/10/26 05:01:26;;;;;;;29.60;13.77;;;;;;;7.80;100.00;99598.66;4998428;28;20060;-46
2023/10/26 05:03:53;;;;;;;43.88;14.05;;;;;;;7.80;100.00;99598.66;5004527;28;20028;-48
2023/10/26 05:06:18;;;;;;;30.77;14.13;;;;;;;7.80;100.00;99605.75;4996637;28;20075;-47
2023/10/26 05:08:44;;;;;;;28.35;14.57;;;;;;;7.77;100.00;99602.38;5007793;28;20030;-46
2023/10/26 05:11:09;;;;;;;30.15;13.48;;;;;;;7.77;100.00;99601.53;4997789;28;20037;-46
2023/10/26 05:13:34;;;;;;;16.13;12.93;;;;;;;7.74;100.00;99602.66;5000831;28;20064;-46
2023/10/26 05:16:00;;;;;;;24.13;13.23;;;;;;;7.72;100.00;99588.72;4995944;28;20027;-47
2023/10/26 05:18:25;;;;;;;14.85;12.57;;;;;;;7.72;100.00;99586.06;5001221;28;20393;-46
2023/10/26 05:20:50;;;;;;;22.42;14.40;;;;;;;7.72;100.00;99594.00;4995213;28;20057;-46
2023/10/26 05:23:16;;;;;;;21.17;14.43;;;;;;;7.75;100.00;99598.22;5000566;28;20027;-48
2023/10/26 05:25:41;;;;;;;32.70;14.55;;;;;;;7.74;100.00;99586.81;4997583;28;20416;-48
2023/10/26 05:28:06;;;;;;;30.20;16.00;;;;;;;7.76;100.00;99586.66;4995641;28;20023;-46
2023/10/26 05:30:32;;;;;;;51.50;16.92;;;;;;;7.75;100.00;99591.09;4998033;28;20048;-47
2023/10/26 05:32:57;;;;;;;80.75;17.38;;;;;;;7.75;100.00;99583.16;5000445;28;20025;-46
2023/10/26 05:35:22;;;;;;;107.95;17.90;;;;;;;7.76;100.00;99586.66;4994399;28;20078;-46
2023/10/26 05:37:47;;;;;;;45.40;16.20;;;;;;;7.75;100.00;99587.63;5004284;28;20086;-46
2023/10/26 05:40:13;;;;;;;24.55;14.85;;;;;;;7.74;100.00;99585.94;5006433;28;20026;-48
2023/10/26 05:42:38;;;;;;;36.13;14.68;;;;;;;7.74;100.00;99597.38;5000996;28;20056;-46
2023/10/26 05:45:04;;;;;;;28.38;14.63;;;;;;;7.70;100.00;99587.19;5003854;28;20033;-46
2023/10/26 05:47:29;;;;;;;17.95;15.60;;;;;;;7.71;100.00;99594.13;4998024;28;20034;-46
2023/10/26 05:49:55;;;;;;;17.30;14.25;;;;;;;7.73;100.00;99586.94;4996647;28;20030;-46
2023/10/26 05:52:20;;;;;;;30.17;14.68;;;;;;;7.69;100.00;99588.97;4997894;28;20054;-46
2023/10/26 05:54:46;;;;;;;32.03;13.43;;;;;;;7.67;100.00;99585.63;4995871;28;20455;-46
2023/10/26 05:57:11;;;;;;;21.92;13.95;;;;;;;7.63;100.00;99583.38;4995615;28;20030;-46
2023/10/26 05:59:37;;;;;;;27.58;14.73;;;;;;;7.63;100.00;99571.00;4991563;28;20026;-46
2023/10/26 06:02:02;;;;;;;61.35;14.80;;;;;;;7.60;100.00;99572.09;4994280;28;20064;-47
2023/10/26 06:04:27;;;;;;;64.68;15.57;;;;;;;7.57;100.00;99572.34;4997754;28;20122;-47
2023/10/26 06:06:53;;;;;;;29.40;15.25;;;;;;;7.62;100.00;99571.13;4992527;28;20066;-47
2023/10/26 06:09:18;;;;;;;36.42;15.38;;;;;;;7.61;100.00;99572.97;4998131;28;20042;-46
2023/10/26 06:11:43;;;;;;;45.83;15.73;;;;;;;7.64;100.00;99577.13;4995871;28;20037;-46
2023/10/26 06:14:09;;;;;;;25.35;15.77;;;;;;;7.66;100.00;99576.03;4997946;28;20105;-46
2023/10/26 06:16:34;;;;;;;35.70;15.65;;;;;;;7.66;100.00;99569.91;4991098;28;20118;-46
2023/10/26 06:18:59;;;;;;;33.63;17.15;;;;;;;7.67;100.00;99576.88;4994480;28;20472;-48
2023/10/26 06:21:25;;;;;;;59.28;17.48;;;;;;;7.66;100.00;99576.03;4996372;28;20045;-47
2023/10/26 06:23:50;;;;;;;50.60;16.58;;;;;;;7.68;100.00;99574.09;5014089;28;20443;-47
2023/10/26 06:26:15;;;;;;;62.05;18.00;;;;;;;7.69;100.00;99570.47;5003872;28;20034;-46
2023/10/26 06:28:40;;;;;;;91.18;17.30;;;;;;;7.70;100.00;99568.69;5007420;28;20026;-46
2023/10/26 06:31:15;;;;;;;79.82;20.25;;;;;;;7.71;100.00;99570.34;4997752;28;20073;-47
2023/10/26 06:33:42;;;;;;;50.08;17.83;;;;;;;7.72;100.00;99569.38;4995096;28;20107;-47
2023/10/26 06:36:08;;;;;;;40.15;18.08;;;;;;;7.75;100.00;99566.50;4997216;28;20037;-46
2023/10/26 06:38:34;;;;;;;31.08;19.25;;;;;;;7.76;100.00;99568.16;4998278;28;20038;-47
2023/10/26 06:40:59;;;;;;;53.05;18.83;;;;;;;7.75;100.00;99574.41;4996578;28;20023;-46
2023/10/26 06:43:25;;;;;;;48.67;19.23;;;;;;;7.77;100.00;99580.41;4989581;28;20477;-46
2023/10/26 06:45:50;;;;;;;63.92;20.00;;;;;;;7.79;100.00;99578.47;4993696;28;20150;-46
2023/10/26 06:48:19;;;;;;;34.42;20.00;;;;;;;7.81;100.00;99567.75;4994261;28;20026;-46
2023/10/26 06:50:47;;;;;;;61.75;20.55;;;;;;;7.82;100.00;99572.09;4995694;28;20393;-48
2023/10/26 06:53:13;;;;;;;41.30;19.25;;;;;;;7.81;100.00;99568.63;4998426;28;20097;-47
2023/10/26 06:55:38;;;;;;;50.08;19.92;;;;;;;7.84;100.00;99565.69;5001097;28;20033;-46
2023/10/26 06:58:04;;;;;;;32.03;19.42;;;;;;;7.87;100.00;99575.16;4990700;28;20022;-46
2023/10/26 07:00:30;;;;;;;29.73;18.88;;;;;;;7.88;100.00;99572.41;4997898;28;20029;-47
2023/10/26 07:02:55;;;;;;;28.25;19.15;;;;;;;7.89;100.00;99571.44;4997704;28;20026;-47
2023/10/26 07:05:20;;;;;;;77.35;19.92;;;;;;;7.91;100.00;99560.69;4994940;28;20030;-47
2023/10/26 07:07:46;;;;;;;53.47;18.60;;;;;;;7.90;100.00;99557.22;4996672;28;20549;-46
2023/10/26 07:10:15;;;;;;;40.30;19.58;;;;;;;7.93;100.00;99564.06;4999903;28;20109;-47
2023/10/26 07:12:41;;;;;;;30.40;19.95;;;;;;;7.93;100.00;99554.34;4996900;28;20036;-47
2023/10/26 07:15:07;;;;;;;45.17;18.95;;;;;;;7.96;100.00;99555.88;4997662;28;20361;-46
2023/10/26 07:17:34;;;;;;;39.80;18.90;;;;;;;7.99;100.00;99560.06;4998298;28;20042;-46
2023/10/26 07:20:00;;;;;;;69.68;19.20;;;;;;;7.97;100.00;99568.13;5000507;28;20030;-47
2023/10/26 07:22:25;;;;;;;27.13;18.30;;;;;;;8.00;100.00;99573.16;4996551;28;20033;-46
2023/10/26 07:24:50;;;;;;;30.15;17.83;;;;;;;8.02;100.00;99567.72;5001612;28;20079;-46
2023/10/26 07:27:16;;;;;;;30.98;18.10;;;;;;;8.02;100.00;99570.38;4999910;28;20502;-46
2023/10/26 07:29:41;;;;;;;46.55;18.10;;;;;;;8.04;100.00;99568.44;4999189;28;20553;-47
2023/10/26 07:32:07;;;;;;;103.55;19.17;;;;;;;8.00;100.00;99572.31;4999101;28;20504;-46
2023/10/26 07:34:32;;;;;;;53.80;17.75;;;;;;;8.04;100.00;99568.44;5000736;28;20449;-47
2023/10/26 07:36:58;;;;;;;59.88;17.88;;;;;;;8.04;100.00;99571.06;4999182;28;20034;-47
2023/10/26 07:39:23;;;;;;;65.38;19.00;;;;;;;8.06;100.00;99566.47;4998393;28;20064;-47
2023/10/26 07:41:48;;;;;;;68.18;17.67;;;;;;;8.03;100.00;99558.84;4996313;28;20063;-47
2023/10/26 07:44:13;;;;;;;33.38;16.98;;;;;;;8.03;100.00;99564.94;4997013;28;20075;-46
2023/10/26 07:46:39;;;;;;;45.42;17.23;;;;;;;8.06;100.00;99563.84;4998729;28;20085;-46
2023/10/26 07:49:04;;;;;;;44.75;17.15;;;;;;;8.09;100.00;99575.00;4997814;28;20030;-47
2023/10/26 07:51:29;;;;;;;63.95;16.80;;;;;;;8.09;100.00;99577.66;4994578;28;20412;-47
2023/10/26 07:53:54;;;;;;;30.05;17.58;;;;;;;8.10;100.00;99581.94;4997946;28;20095;-47
2023/10/26 07:56:20;;;;;;;26.83;16.88;;;;;;;8.12;100.00;99574.72;5007319;28;20525;-46
2023/10/26 07:58:45;;;;;;;40.42;18.40;;;;;;;8.17;100.00;99576.97;4995593;28;20034;-48
2023/10/26 08:01:10;;;;;;;33.20;18.20;;;;;;;8.22;100.00;99585.34;4998129;28;20034;-46
2023/10/26 08:03:36;;;;;;;29.85;17.63;;;;;;;8.26;100.00;99594.69;4999518;28;20030;-46
2023/10/26 08:06:02;;;;;;;61.35;19.08;;;;;;;8.25;100.00;99593.00;5000216;28;20361;-47
2023/10/26 08:08:28;;;;;;;58.65;17.38;;;;;;;8.24;100.00;99596.63;4999897;28;20072;-47
2023/10/26 08:10:53;;;;;;;45.33;17.60;;;;;;;8.24;100.00;99593.16;4992859;28;20054;-47
2023/10/26 08:13:19;;;;;;;45.65;17.77;;;;;;;8.23;100.00;99596.78;4978076;28;20034;-47
2023/10/26 08:15:44;;;;;;;27.85;18.17;;;;;;;8.24;100.00;99595.78;4997550;28;20025;-47
2023/10/26 08:18:11;;;;;;;34.05;19.05;;;;;;;8.26;100.00;99592.06;5000971;28;20476;-48
2023/10/26 08:20:37;;;;;;;24.80;18.27;;;;;;;8.34;100.00;99594.00;4997120;28;20062;-46
2023/10/26 08:23:03;;;;;;;44.17;20.40;;;;;;;8.37;100.00;99599.03;4997805;28;20066;-46
2023/10/26 08:25:28;;;;;;;31.15;18.55;;;;;;;8.39;100.00;99598.91;4998358;28;20030;-47
2023/10/26 08:27:53;;;;;;;30.40;19.45;;;;;;;8.43;100.00;99600.38;4998283;28;20022;-47
2023/10/26 08:30:19;;;;;;;32.45;20.80;;;;;;;8.44;100.00;99602.88;5001343;28;20026;-46
2023/10/26 08:32:44;;;;;;;29.27;20.77;;;;;;;8.44;100.00;99602.00;5011810;28;20142;-47
2023/10/26 08:35:09;;;;;;;30.33;21.02;;;;;;;8.47;100.00;99599.09;4997319;28;20044;-48
2023/10/26 08:37:34;;;;;;;37.58;21.67;;;;;;;8.51;100.00;99596.06;4996242;28;20469;-47
2023/10/26 08:40:00;;;;;;;34.55;21.55;;;;;;;8.57;100.00;99599.13;4998179;28;20041;-46
2023/10/26 08:42:25;;;;;;;41.80;21.67;;;;;;;8.58;100.00;99603.47;5004969;28;20079;-47
2023/10/26 08:44:54;;;;;;;38.05;20.98;;;;;;;8.61;100.00;99605.81;4996041;28;20079;-46
2023/10/26 08:47:21;;;;;;;36.08;22.05;;;;;;;8.64;100.00;99606.41;4997517;28;20065;-46
2023/10/26 08:49:49;;;;;;;32.83;22.40;;;;;;;8.69;100.00;99593.59;4995514;28;20447;-47
2023/10/26 08:52:15;;;;;;;39.50;22.73;;;;;;;8.70;100.00;99592.63;4994195;28;20398;-47
2023/10/26 08:54:40;;;;;;;35.45;23.77;;;;;;;8.74;100.00;99595.81;4996556;28;20018;-48
2023/10/26 08:57:07;;;;;;;31.90;22.77;;;;;;;8.81;100.00;99598.75;4994016;28;20022;-46
2023/10/26 08:59:33;;;;;;;32.95;22.67;;;;;;;8.83;100.00;99596.84;4991071;28;20030;-47
2023/10/26 09:01:59;;;;;;;33.10;21.98;;;;;;;8.87;100.00;99595.56;4995530;28;20038;-47
2023/10/26 09:04:24;;;;;;;33.13;23.98;;;;;;;8.92;100.00;99588.03;4998167;28;20387;-46
2023/10/26 09:06:49;;;;;;;31.13;22.65;;;;;;;8.97;100.00;99590.28;5001254;28;20109;-46
2023/10/26 09:09:16;;;;;;;29.73;22.80;;;;;;;9.01;100.00;99600.47;4999663;28;20038;-47
2023/10/26 09:11:42;;;;;;;33.50;22.75;;;;;;;9.04;100.00;99594.91;4997185;28;20109;-46
2023/10/26 09:14:15;;;;;;;31.83;24.25;;;;;;;9.07;100.00;99597.25;4988859;28;20121;-47
2023/10/26 09:16:43;;;;;;;33.13;24.40;;;;;;;9.07;100.00;99589.31;4999660;28;20495;-46
2023/10/26 09:19:09;;;;;;;40.97;26.63;;;;;;;9.11;100.00;99589.03;4993929;28;20022;-46
2023/10/26 09:21:56;;;;;;;34.50;24.65;;;;;;;9.18;100.00;99591.00;4997192;28;20065;-46
2023/10/26 09:24:24;;;;;;;37.70;25.52;;;;;;;9.19;100.00;99589.19;4994007;28;20038;-47
2023/10/26 09:26:52;;;;;;;37.53;26.47;;;;;;;9.19;100.00;99595.34;4992188;28;20073;-46
2023/10/26 09:29:18;;;;;;;37.50;26.33;;;;;;;9.21;100.00;99587.25;4995645;28;20041;-46
2023/10/26 09:31:54;;;;;;;36.90;25.30;;;;;;;9.28;100.00;99592.81;4991059;28;20035;-46
2023/10/26 09:34:25;;;;;;;37.63;26.75;;;;;;;9.34;100.00;99593.09;4993742;28;20040;-46
2023/10/26 09:37:05;;;;;;;36.30;26.70;;;;;;;9.37;100.00;99582.19;4995525;28;20426;-46
2023/10/26 09:39:32;;;;;;;35.67;25.85;;;;;;;9.39;100.00;99584.69;4999212;28;20057;-46
2023/10/26 09:42:00;;;;;;;35.50;25.67;;;;;;;9.45;100.00;99582.31;4996783;28;20022;-47
2023/10/26 09:44:26;;;;;;;35.40;25.95;;;;;;;9.46;100.00;99583.19;4998287;28;20107;-48
2023/10/26 09:46:52;;;;;;;35.78;26.25;;;;;;;9.51;100.00;99582.72;5000769;28;20061;-46
2023/10/26 09:49:17;;;;;;;36.15;25.73;;;;;;;9.50;100.00;99578.44;4994185;28;20021;-47
2023/10/26 09:51:43;;;;;;;35.10;25.70;;;;;;;9.52;100.00;99577.28;4993032;28;20112;-46
2023/10/26 09:54:10;;;;;;;33.78;25.05;;;;;;;9.56;100.00;99572.53;4991912;28;20024;-46
2023/10/26 09:56:38;;;;;;;37.00;25.95;;;;;;;9.60;100.00;99566.81;4995548;28;20053;-46
2023/10/26 09:59:03;;;;;;;35.05;26.70;;;;;;;9.64;100.00;99564.72;4997589;28;20025;-46
2023/10/26 10:01:37;;;;;;;34.60;24.52;;;;;;;9.66;100.00;99565.44;4997531;28;20026;-46
2023/10/26 10:04:04;;;;;;;36.10;25.80;;;;;;;9.65;100.00;99565.56;4990872;28;20018;-46
2023/10/26 10:06:49;;;;;;;34.75;25.15;;;;;;;9.67;100.00;99564.44;4993788;28;20030;-46
2023/10/26 10:09:17;;;;;;;33.55;24.60;;;;;;;9.66;100.00;99565.44;4993984;28;20377;-47
2023/10/26 10:11:42;;;;;;;33.85;25.25;;;;;;;9.66;100.00;99553.97;4998358;28;20117;-46
2023/10/26 10:14:08;;;;;;;32.05;23.20;;;;;;;9.69;100.00;99549.25;4993264;28;20110;-46
2023/10/26 10:16:36;;;;;;;32.10;23.75;;;;;;;9.74;100.00;99554.09;5000290;28;20026;-47
2023/10/26 10:19:24;;;;;;;30.20;23.47;;;;;;;9.78;100.00;99553.66;4997265;28;20037;-46
2023/10/26 10:21:51;;;;;;;32.33;23.65;;;;;;;9.76;100.00;99549.50;4992062;28;20303;-48
2023/10/26 10:24:42;;;;;;;32.03;24.38;;;;;;;9.80;100.00;99537.59;4995926;28;20044;-47
2023/10/26 10:27:12;;;;;;;30.30;22.92;;;;;;;9.78;100.00;99539.56;4999946;28;20034;-46
2023/10/26 10:29:42;;;;;;;28.50;22.83;;;;;;;9.80;100.00;99538.44;4997012;28;20037;-46
2023/10/26 10:32:07;;;;;;;29.70;21.90;;;;;;;9.80;100.00;99529.66;4997603;28;20026;-47
2023/10/26 10:34:44;;;;;;;28.20;21.90;;;;;;;9.83;100.00;99529.38;4994633;28;20392;-47
2023/10/26 10:37:21;;;;;;;28.20;22.23;;;;;;;9.85;100.00;99534.53;4998312;28;20034;-47
2023/10/26 10:40:08;;;;;;;27.92;21.50;;;;;;;9.86;100.00;99534.38;5000704;28;20037;-47
2023/10/26 10:42:35;;;;;;;27.77;20.85;;;;;;;9.81;100.00;99532.16;4996976;28;20031;-48
2023/10/26 10:45:02;;;;;;;28.70;22.83;;;;;;;9.82;100.00;99525.03;4999007;28;20075;-46
2023/10/26 10:47:28;;;;;;;27.38;22.30;;;;;;;9.90;100.00;99526.97;4999033;28;20379;-49
2023/10/26 10:50:12;;;;;;;27.35;21.50;;;;;;;9.95;100.00;99522.88;4994258;28;20027;-46
2023/10/26 10:52:38;;;;;;;28.20;22.70;;;;;;;9.99;100.00;99518.13;5000125;28;20038;-46
2023/10/26 10:55:03;;;;;;;27.65;21.65;;;;;;;10.03;100.00;99505.41;5000943;28;20045;-46
2023/10/26 10:57:28;;;;;;;27.02;20.55;;;;;;;10.09;100.00;99518.06;4997178;28;20429;-46
2023/10/26 10:59:54;;;;;;;24.48;19.63;;;;;;;10.10;100.00;99514.44;4998131;28;20049;-46
2023/10/26 11:02:19;;;;;;;24.20;19.38;;;;;;;10.13;100.00;99504.38;5000975;28;20047;-47
2023/10/26 11:04:56;;;;;;;23.27;19.33;;;;;;;10.15;100.00;99507.72;5009974;28;20034;-46
2023/10/26 11:07:26;;;;;;;22.15;18.60;;;;;;;10.13;100.00;99509.69;4998843;28;20392;-46
2023/10/26 11:09:57;;;;;;;23.83;19.02;;;;;;;10.14;100.00;99513.16;4999951;28;20867;-47
2023/10/26 11:12:22;;;;;;;22.38;18.73;;;;;;;10.16;100.00;99519.19;4998271;28;20489;-45